createdAt,value
2022-08-05T00:00:50.282Z,1261.90
2022-08-05T00:01:49.610Z,1256.50
2022-08-05T00:02:51.549Z,1226.10
2022-08-05T00:03:48.838Z,1205.30
2022-08-05T00:04:55.595Z,1202.70
2022-08-05T00:06:05.410Z,1154.50
2022-08-05T00:06:51.749Z,1152.30
2022-08-05T00:08:00.589Z,1132.30
2022-08-05T00:08:49.770Z,1117.50
2022-08-05T00:09:48.759Z,1120.20
2022-08-05T00:10:49.054Z,1140.60
2022-08-05T00:11:49.470Z,1147.30
2022-08-05T00:12:56.828Z,1171.20
2022-08-05T00:13:53.234Z,1166.40
2022-08-05T00:14:48.692Z,1165.60
2022-08-05T00:15:55.042Z,1158.20
2022-08-05T00:16:53.749Z,1171.80
2022-08-05T00:17:48.653Z,1174.70
2022-08-05T00:18:48.632Z,1180.20
2022-08-05T00:20:01.903Z,1163.20
2022-08-05T00:20:49.812Z,1166.20
2022-08-05T00:21:48.603Z,1185.00
2022-08-05T00:22:57.402Z,1185.50
2022-08-05T00:23:53.451Z,1171.90
2022-08-05T00:24:54.823Z,1181.20
2022-08-05T00:25:49.546Z,1183.50
2022-08-05T00:26:50.984Z,1192.90
2022-08-05T00:27:48.524Z,1178.80
2022-08-05T00:28:49.268Z,1175.90
2022-08-05T00:29:48.497Z,1177.80
2022-08-05T00:30:52.131Z,1198.00
2022-08-05T00:32:10.678Z,1202.20
2022-08-05T00:32:49.454Z,1177.10
2022-08-05T00:34:53.693Z,1191.30
2022-08-05T00:35:05.043Z,1181.10
2022-08-05T00:36:16.359Z,1176.60
2022-08-05T00:37:12.797Z,1180.30
2022-08-05T00:37:52.431Z,1179.40
2022-08-05T00:38:48.374Z,1156.80
2022-08-05T00:39:57.923Z,1176.20
2022-08-05T00:40:51.935Z,1180.10
2022-08-05T00:41:55.260Z,1168.30
2022-08-05T00:42:50.007Z,1167.10
2022-08-05T00:43:49.894Z,1176.60
2022-08-05T00:44:48.296Z,1165.10
2022-08-05T00:45:48.289Z,1199.10
2022-08-05T00:46:54.237Z,1190.10
2022-08-05T00:47:49.265Z,1197.10
2022-08-05T00:48:51.244Z,1204.50
2022-08-05T00:49:51.703Z,1193.00
2022-08-05T00:50:48.216Z,1192.10
2022-08-05T00:51:51.454Z,1169.50
2022-08-05T00:52:48.189Z,1160.50
2022-08-05T00:54:02.412Z,1162.10
2022-08-05T00:54:49.158Z,1159.50
2022-08-05T00:55:48.169Z,1201.30
2022-08-05T00:56:51.709Z,1224.80
2022-08-05T00:57:57.868Z,1233.50
2022-08-05T00:58:49.111Z,1247.70
2022-08-05T00:59:48.098Z,1221.30
2022-08-05T01:00:50.179Z,1216.20
2022-08-05T01:01:48.972Z,1192.30
2022-08-05T01:02:48.049Z,1207.00
2022-08-05T01:03:49.951Z,1220.00
2022-08-05T01:04:50.335Z,1211.80
2022-08-05T01:05:48.021Z,1250.20
2022-08-05T01:06:48.773Z,1212.00
2022-08-05T01:08:40.218Z,1217.60
2022-08-05T01:08:49.000Z,1200.70
2022-08-05T01:09:55.766Z,1195.40
2022-08-05T01:10:52.322Z,1197.60
2022-08-05T01:11:47.941Z,1202.30
2022-08-05T01:13:05.062Z,1170.20
2022-08-05T01:13:58.436Z,1133.20
2022-08-05T01:14:49.403Z,1122.40
2022-08-05T01:15:48.109Z,1073.70
2022-08-05T01:16:47.873Z,1084.50
2022-08-05T01:17:53.836Z,990.50
2022-08-05T01:18:53.719Z,975.20
2022-08-05T01:20:01.569Z,962.30
2022-08-05T01:20:48.825Z,988.10
2022-08-05T01:21:50.588Z,996.80
2022-08-05T01:22:47.794Z,1007.10
2022-08-05T01:23:53.218Z,990.50
2022-08-05T01:24:48.760Z,1013.30
2022-08-05T01:25:53.233Z,1071.90
2022-08-05T01:26:48.741Z,1064.40
2022-08-05T01:27:55.283Z,1066.60
2022-08-05T01:28:48.713Z,1064.40
2022-08-05T01:29:47.700Z,1083.10
2022-08-05T01:30:53.716Z,1088.90
2022-08-05T01:31:48.676Z,1083.20
2022-08-05T01:32:47.654Z,1100.40
2022-08-05T01:33:49.101Z,1090.30
2022-08-05T01:34:47.635Z,1076.90
2022-08-05T01:35:50.678Z,1077.70
2022-08-05T01:36:47.768Z,1088.10
2022-08-05T01:37:47.605Z,1074.90
2022-08-05T01:38:48.547Z,1085.90
2022-08-05T01:39:48.023Z,1088.90
2022-08-05T01:40:47.545Z,1100.10
2022-08-05T01:41:47.555Z,1133.50
2022-08-05T01:42:47.525Z,1138.20
2022-08-05T01:43:48.892Z,1110.70
2022-08-05T01:44:53.905Z,1133.80
2022-08-05T01:45:48.485Z,1133.80
2022-08-05T01:46:48.605Z,1140.50
2022-08-05T01:47:47.849Z,1140.70
2022-08-05T01:48:49.636Z,1136.40
2022-08-05T01:50:01.567Z,1137.30
2022-08-05T01:50:51.155Z,1130.80
2022-08-05T01:51:50.968Z,1128.80
2022-08-05T01:52:49.716Z,1139.20
2022-08-05T01:53:57.865Z,1138.90
2022-08-05T01:54:48.368Z,1146.20
2022-08-05T01:55:47.356Z,1136.60
2022-08-05T01:58:12.462Z,1107.60
2022-08-05T01:58:29.708Z,1104.40
2022-08-05T01:58:48.506Z,1090.50
2022-08-05T01:59:47.421Z,1097.90
2022-08-05T02:00:47.287Z,1090.00
2022-08-05T02:01:47.280Z,1101.90
2022-08-05T02:02:53.661Z,1099.30
2022-08-05T02:03:48.250Z,1093.70
2022-08-05T02:04:49.489Z,1099.90
2022-08-05T02:05:47.240Z,1096.80
2022-08-05T02:06:47.216Z,1089.20
2022-08-05T02:07:56.249Z,1095.90
2022-08-05T02:08:58.654Z,1095.40
2022-08-05T02:09:48.179Z,1095.60
2022-08-05T02:10:47.150Z,1101.30
2022-08-05T02:11:47.823Z,1090.60
2022-08-05T02:12:51.056Z,1098.80
2022-08-05T02:13:53.254Z,1103.70
2022-08-05T02:14:48.109Z,1103.10
2022-08-05T02:15:47.099Z,1092.30
2022-08-05T02:16:47.078Z,1089.50
2022-08-05T02:18:33.038Z,1091.90
2022-08-05T02:18:48.064Z,1108.40
2022-08-05T02:19:47.773Z,1104.90
2022-08-05T02:20:47.082Z,1096.60
2022-08-05T02:21:49.228Z,1102.60
2022-08-05T02:22:47.003Z,1102.30
2022-08-05T02:23:46.994Z,1100.50
2022-08-05T02:24:46.969Z,1094.00
2022-08-05T02:25:50.264Z,1103.50
2022-08-05T02:26:53.805Z,1089.40
2022-08-05T02:27:58.098Z,1081.20
2022-08-05T02:28:47.923Z,1086.70
2022-08-05T02:30:00.016Z,1087.00
2022-08-05T02:30:54.242Z,1102.80
2022-08-05T02:31:47.884Z,1113.30
2022-08-05T02:32:46.860Z,1112.50
2022-08-05T02:33:48.455Z,1090.20
2022-08-05T02:34:55.057Z,1083.80
2022-08-05T02:35:56.312Z,1086.30
2022-08-05T02:36:47.820Z,1096.20
2022-08-05T02:37:53.770Z,1096.70
2022-08-05T02:38:53.613Z,1113.90
2022-08-05T02:39:47.864Z,1134.30
2022-08-05T02:40:46.763Z,1106.20
2022-08-05T02:42:00.980Z,1094.40
2022-08-05T02:42:52.978Z,1108.00
2022-08-05T02:44:05.998Z,1097.00
2022-08-05T02:44:47.712Z,1084.50
2022-08-05T02:45:51.583Z,1089.10
2022-08-05T02:46:58.681Z,1083.50
2022-08-05T02:48:09.821Z,1089.00
2022-08-05T02:48:47.645Z,1089.30
2022-08-05T02:49:46.644Z,1089.90
2022-08-05T02:50:46.622Z,1098.50
2022-08-05T02:52:03.965Z,1110.30
2022-08-05T02:52:47.861Z,1128.70
2022-08-05T02:53:46.584Z,1124.60
2022-08-05T02:54:51.160Z,1118.10
2022-08-05T02:55:48.352Z,1117.70
2022-08-05T02:56:47.620Z,1131.80
2022-08-05T02:58:11.772Z,1122.30
2022-08-05T02:58:51.510Z,1110.50
2022-08-05T02:59:50.231Z,1119.90
2022-08-05T03:00:46.493Z,1114.30
2022-08-05T03:01:46.531Z,1129.00
2022-08-05T03:02:47.456Z,1124.40
2022-08-05T03:04:03.097Z,1143.60
2022-08-05T03:04:47.443Z,1163.20
2022-08-05T03:06:54.598Z,1114.20
2022-08-05T03:06:55.156Z,1143.70
2022-08-05T03:08:06.627Z,1105.90
2022-08-05T03:08:47.383Z,1103.60
2022-08-05T03:09:51.587Z,1100.30
2022-08-05T03:11:01.057Z,1098.00
2022-08-05T03:11:55.693Z,1090.90
2022-08-05T03:12:47.340Z,1097.00
2022-08-05T03:13:51.664Z,1101.90
2022-08-05T03:14:48.097Z,1096.90
2022-08-05T03:15:46.308Z,1101.20
2022-08-05T03:16:46.275Z,1095.90
2022-08-05T03:17:46.267Z,1097.30
2022-08-05T03:18:46.248Z,1103.80
2022-08-05T03:19:46.249Z,1108.60
2022-08-05T03:20:48.941Z,1119.60
2022-08-05T03:21:49.315Z,1109.50
2022-08-05T03:22:49.886Z,1102.30
2022-08-05T03:23:46.202Z,1095.80
2022-08-05T03:24:47.026Z,1097.20
2022-08-05T03:26:05.005Z,1090.00
2022-08-05T03:26:49.459Z,1087.40
2022-08-05T03:28:00.074Z,1091.40
2022-08-05T03:28:47.119Z,1094.90
2022-08-05T03:30:08.565Z,1098.80
2022-08-05T03:30:47.097Z,1105.00
2022-08-05T03:31:56.590Z,1119.90
2022-08-05T03:32:47.069Z,1134.30
2022-08-05T03:33:52.951Z,1152.90
2022-08-05T03:34:51.172Z,1143.40
2022-08-05T03:35:46.031Z,1141.90
2022-08-05T03:36:46.170Z,1126.40
2022-08-05T03:37:46.909Z,1140.40
2022-08-05T03:38:52.552Z,1136.90
2022-08-05T03:39:57.627Z,1138.40
2022-08-05T03:40:47.547Z,1147.90
2022-08-05T03:41:46.947Z,1162.80
2022-08-05T03:42:52.004Z,1155.60
2022-08-05T03:44:09.365Z,1163.90
2022-08-05T03:44:46.904Z,1161.40
2022-08-05T03:45:57.586Z,1156.60
2022-08-05T03:46:46.911Z,1161.10
2022-08-05T03:47:45.890Z,1166.80
2022-08-05T03:48:46.767Z,1159.40
2022-08-05T03:49:51.229Z,1160.90
2022-08-05T03:50:46.845Z,1156.20
2022-08-05T03:52:38.608Z,1139.70
2022-08-05T03:55:06.794Z,1150.40
2022-08-05T03:55:53.227Z,1147.60
2022-08-05T03:56:01.744Z,1152.40
2022-08-05T03:56:04.361Z,1131.70
2022-08-05T03:56:46.742Z,1119.90
2022-08-05T03:57:46.248Z,1107.80
2022-08-05T03:58:45.724Z,1096.10
2022-08-05T03:59:46.746Z,1091.80
2022-08-05T04:00:51.401Z,1080.10
2022-08-05T04:01:46.749Z,1077.90
2022-08-05T04:02:57.672Z,1073.70
2022-08-05T04:04:09.179Z,1086.40
2022-08-05T04:04:46.645Z,1081.30
2022-08-05T04:05:45.642Z,1094.10
2022-08-05T04:06:47.862Z,1092.70
2022-08-05T04:07:58.536Z,1118.60
2022-08-05T04:08:46.591Z,1106.50
2022-08-05T04:09:53.159Z,1107.50
2022-08-05T04:10:46.573Z,1094.10
2022-08-05T04:11:50.685Z,1119.30
2022-08-05T04:13:17.816Z,1057.80
2022-08-05T04:14:18.054Z,1064.10
2022-08-05T04:15:17.768Z,1088.30
2022-08-05T04:16:25.475Z,1097.10
2022-08-05T04:17:18.732Z,1093.70
2022-08-05T04:18:22.374Z,1100.60
2022-08-05T04:19:17.711Z,1097.80
2022-08-05T04:20:17.699Z,1089.30
2022-08-05T04:21:19.937Z,1094.60
2022-08-05T04:22:20.432Z,1084.70
2022-08-05T04:23:17.668Z,1082.10
2022-08-05T04:24:22.358Z,1084.40
2022-08-05T04:25:17.625Z,1085.80
2022-08-05T04:26:17.618Z,1086.10
2022-08-05T04:27:17.608Z,1074.80
2022-08-05T04:28:17.591Z,1093.50
2022-08-05T04:29:17.812Z,1100.90
2022-08-05T04:30:17.568Z,1101.90
2022-08-05T04:31:17.559Z,1088.30
2022-08-05T04:32:20.139Z,1093.70
2022-08-05T04:33:20.536Z,1086.40
2022-08-05T04:34:32.347Z,1090.10
2022-08-05T04:35:19.794Z,1088.30
2022-08-05T04:36:45.098Z,1097.90
2022-08-05T04:37:18.470Z,1085.30
2022-08-05T04:38:17.471Z,1087.50
2022-08-05T04:39:17.542Z,1077.90
2022-08-05T04:40:19.662Z,1078.90
2022-08-05T04:41:17.433Z,1089.20
2022-08-05T04:42:17.419Z,1094.00
2022-08-05T04:43:17.398Z,1085.90
2022-08-05T04:44:21.234Z,1077.00
2022-08-05T04:45:31.195Z,1081.00
2022-08-05T04:46:28.486Z,1068.10
2022-08-05T04:47:20.189Z,1065.70
2022-08-05T04:48:27.601Z,1070.00
2022-08-05T04:49:18.326Z,1060.80
2022-08-05T04:50:34.494Z,1065.10
2022-08-05T04:51:18.312Z,1066.30
2022-08-05T04:52:17.290Z,1066.70
2022-08-05T04:53:17.273Z,1086.20
2022-08-05T04:54:17.261Z,1090.80
2022-08-05T04:55:17.252Z,1098.00
2022-08-05T04:56:33.192Z,1076.20
2022-08-05T04:57:18.221Z,1084.90
2022-08-05T04:58:17.213Z,1088.80
2022-08-05T04:59:24.072Z,1104.00
2022-08-05T05:00:18.173Z,1111.00
2022-08-05T05:02:06.350Z,1104.50
2022-08-05T05:02:41.229Z,1075.70
2022-08-05T05:03:20.346Z,1063.60
2022-08-05T05:04:17.151Z,1063.60
2022-08-05T05:05:28.701Z,1058.60
2022-08-05T05:06:35.965Z,1135.80
2022-08-05T05:07:18.084Z,1138.90
2022-08-05T05:08:30.167Z,1143.00
2022-08-05T05:09:18.415Z,1141.80
2022-08-05T05:10:17.052Z,1143.60
2022-08-05T05:11:17.035Z,1171.20
2022-08-05T05:12:17.384Z,1190.20
2022-08-05T05:13:17.011Z,1190.70
2022-08-05T05:14:16.995Z,1189.20
2022-08-05T05:15:59.096Z,1188.80
2022-08-05T05:16:19.806Z,1188.80
2022-08-05T05:17:22.891Z,1179.80
2022-08-05T05:18:31.652Z,1191.40
2022-08-05T05:19:19.463Z,1199.40
2022-08-05T05:20:17.954Z,1187.30
2022-08-05T05:21:16.895Z,1199.00
2022-08-05T05:22:24.364Z,1193.20
2022-08-05T05:23:19.601Z,1177.90
2022-08-05T05:24:17.631Z,1184.50
2022-08-05T05:25:17.514Z,1182.40
2022-08-05T05:26:16.949Z,1199.10
2022-08-05T05:27:17.351Z,1200.20
2022-08-05T05:28:16.828Z,1201.00
2022-08-05T05:29:16.833Z,1179.40
2022-08-05T05:30:29.602Z,1193.40
2022-08-05T05:31:18.555Z,1204.30
2022-08-05T05:32:16.791Z,1201.10
2022-08-05T05:33:17.331Z,1205.10
2022-08-05T05:34:22.518Z,1200.40
2022-08-05T05:35:19.856Z,1205.20
2022-08-05T05:36:16.737Z,1209.30
2022-08-05T05:37:16.702Z,1192.30
2022-08-05T05:38:22.823Z,1192.60
2022-08-05T05:39:19.307Z,1187.00
2022-08-05T05:40:16.656Z,1223.60
2022-08-05T05:41:16.644Z,1228.10
2022-08-05T05:42:16.637Z,1219.00
2022-08-05T05:43:16.646Z,1222.50
2022-08-05T05:44:36.716Z,1226.20
2022-08-05T05:45:17.590Z,1216.00
2022-08-05T05:46:18.012Z,1227.30
2022-08-05T05:47:22.041Z,1213.00
2022-08-05T05:48:17.558Z,1218.20
2022-08-05T05:49:23.098Z,1221.00
2022-08-05T05:50:19.632Z,1196.60
2022-08-05T05:51:16.509Z,1219.20
2022-08-05T05:52:25.423Z,1218.40
2022-08-05T05:53:22.130Z,1232.70
2022-08-05T05:54:17.493Z,1201.70
2022-08-05T05:55:16.889Z,1217.80
2022-08-05T05:56:16.468Z,1213.20
2022-08-05T05:57:19.270Z,1221.50
2022-08-05T05:58:16.428Z,1237.70
2022-08-05T05:59:16.419Z,1213.20
2022-08-05T06:00:16.400Z,1216.20
2022-08-05T06:01:16.391Z,1231.60
2022-08-05T06:02:16.370Z,1236.10
2022-08-05T06:03:39.584Z,1241.40
2022-08-05T06:04:17.387Z,1235.00
2022-08-05T06:05:16.607Z,1230.00
2022-08-05T06:06:16.681Z,1278.60
2022-08-05T06:07:16.342Z,1235.50
2022-08-05T06:08:16.302Z,1249.80
2022-08-05T06:09:25.741Z,1266.00
2022-08-05T06:10:17.271Z,1165.20
2022-08-05T06:11:16.252Z,1109.80
2022-08-05T06:12:16.270Z,1128.00
2022-08-05T06:13:16.244Z,1105.90
2022-08-05T06:14:16.232Z,1111.40
2022-08-05T06:15:23.921Z,1088.50
2022-08-05T06:16:28.691Z,1096.80
2022-08-05T06:17:22.062Z,1090.60
2022-08-05T06:18:17.171Z,1087.80
2022-08-05T06:19:26.278Z,1081.30
2022-08-05T06:20:18.846Z,1082.30
2022-08-05T06:21:16.584Z,1085.20
2022-08-05T06:22:16.112Z,1084.50
2022-08-05T06:23:16.104Z,1057.40
2022-08-05T06:24:16.082Z,1061.60
2022-08-05T06:25:25.243Z,1092.40
2022-08-05T06:26:21.620Z,1054.00
2022-08-05T06:28:11.848Z,1021.00
2022-08-05T06:28:21.437Z,1016.90
2022-08-05T06:29:25.220Z,1029.40
2022-08-05T06:30:19.915Z,1067.00
2022-08-05T06:31:18.125Z,1020.40
2022-08-05T06:32:21.351Z,1007.60
2022-08-05T06:33:19.344Z,1021.60
2022-08-05T06:34:15.965Z,1033.50
2022-08-05T06:36:02.926Z,1038.20
2022-08-05T06:36:16.947Z,1037.40
2022-08-05T06:37:15.968Z,1005.10
2022-08-05T06:38:17.086Z,980.80
2022-08-05T06:39:15.965Z,987.00
2022-08-05T06:40:18.449Z,1014.50
2022-08-05T06:41:16.865Z,1022.30
2022-08-05T06:42:15.857Z,998.50
2022-08-05T06:43:51.640Z,985.60
2022-08-05T06:44:16.816Z,989.50
2022-08-05T06:45:20.785Z,983.70
2022-08-05T06:46:16.797Z,1001.70
2022-08-05T06:47:29.889Z,993.20
2022-08-05T06:48:50.184Z,1001.60
2022-08-05T06:49:16.938Z,1024.70
2022-08-05T06:50:17.397Z,1023.00
2022-08-05T06:51:23.966Z,1007.50
2022-08-05T06:52:37.120Z,1009.50
2022-08-05T06:53:22.463Z,1003.90
2022-08-05T06:54:19.307Z,1015.10
2022-08-05T06:55:16.693Z,1023.90
2022-08-05T06:56:26.580Z,1010.50
2022-08-05T06:58:02.981Z,1024.00
2022-08-05T06:58:30.086Z,1033.90
2022-08-05T06:59:16.637Z,1071.50
2022-08-05T07:00:16.217Z,1063.40
2022-08-05T07:01:20.703Z,1073.50
2022-08-05T07:02:15.602Z,1090.50
2022-08-05T07:03:16.725Z,1077.80
2022-08-05T07:04:15.566Z,1065.50
2022-08-05T07:05:18.893Z,1075.30
2022-08-05T07:06:15.539Z,1083.90
2022-08-05T07:07:15.581Z,1075.00
2022-08-05T07:08:16.531Z,1093.20
2022-08-05T07:09:15.508Z,1076.90
2022-08-05T07:10:16.449Z,1074.80
2022-08-05T07:11:16.104Z,1070.10
2022-08-05T07:12:15.470Z,1075.80
2022-08-05T07:13:15.451Z,1065.60
2022-08-05T07:14:29.675Z,1057.00
2022-08-05T07:15:34.022Z,1068.10
2022-08-05T07:17:58.199Z,1059.80
2022-08-05T07:18:01.082Z,1071.90
2022-08-05T07:18:22.121Z,1065.90
2022-08-05T07:19:31.822Z,1095.50
2022-08-05T07:20:32.949Z,1118.40
2022-08-05T07:21:16.361Z,1092.80
2022-08-05T07:22:16.364Z,1073.80
2022-08-05T07:23:26.345Z,1058.70
2022-08-05T07:24:16.316Z,1033.30
2022-08-05T07:25:54.504Z,1012.50
2022-08-05T07:26:20.959Z,1007.80
2022-08-05T07:27:16.274Z,999.40
2022-08-05T07:28:17.403Z,994.30
2022-08-05T07:29:15.255Z,999.60
2022-08-05T07:30:24.187Z,1013.40
2022-08-05T07:31:16.225Z,1032.30
2022-08-05T07:32:15.533Z,1038.40
2022-08-05T07:33:16.566Z,1036.40
2022-08-05T07:34:15.501Z,1049.60
2022-08-05T07:36:03.256Z,1042.90
2022-08-05T07:36:19.889Z,1046.90
2022-08-05T07:37:15.164Z,1066.60
2022-08-05T07:38:32.549Z,1101.90
2022-08-05T07:39:24.711Z,1123.80
2022-08-05T07:40:32.665Z,1132.40
2022-08-05T07:41:35.068Z,1189.50
2022-08-05T07:42:16.207Z,1307.20
2022-08-05T07:43:20.950Z,1311.50
2022-08-05T07:44:19.210Z,1218.60
2022-08-05T07:45:15.036Z,1257.90
2022-08-05T07:46:24.523Z,1226.70
2022-08-05T07:47:16.011Z,1195.60
2022-08-05T07:48:14.998Z,1246.20
2022-08-05T07:49:15.986Z,1256.80
2022-08-05T07:50:16.721Z,1293.60
2022-08-05T07:51:23.329Z,1274.20
2022-08-05T07:52:15.952Z,1176.40
2022-08-05T07:53:15.018Z,1163.70
2022-08-05T07:54:14.922Z,1214.00
2022-08-05T07:55:43.983Z,1236.60
2022-08-05T07:56:54.807Z,1191.40
2022-08-05T07:57:42.028Z,1148.90
2022-08-05T07:58:17.572Z,1087.40
2022-08-05T07:59:15.858Z,1258.50
2022-08-05T08:00:14.853Z,1310.20
2022-08-05T08:01:14.853Z,1248.80
2022-08-05T08:02:16.607Z,1260.20
2022-08-05T08:03:15.988Z,1322.00
2022-08-05T08:04:14.827Z,1274.00
2022-08-05T08:05:14.794Z,1255.70
2022-08-05T08:06:14.773Z,1298.80
2022-08-05T08:07:14.967Z,1207.50
2022-08-05T08:08:14.745Z,1205.30
2022-08-05T08:09:14.731Z,1179.30
2022-08-05T08:10:14.735Z,1306.80
2022-08-05T08:11:16.133Z,1267.80
2022-08-05T08:12:33.445Z,1187.10
2022-08-05T08:13:15.682Z,1266.00
2022-08-05T08:14:19.040Z,1102.60
2022-08-05T08:15:15.524Z,1204.80
2022-08-05T08:16:42.996Z,1277.20
2022-08-05T08:17:15.959Z,1271.20
2022-08-05T08:18:14.622Z,1268.90
2022-08-05T08:20:10.221Z,1263.70
2022-08-05T08:20:44.401Z,1137.60
2022-08-05T08:21:17.467Z,1283.30
2022-08-05T08:22:15.847Z,1337.60
2022-08-05T08:24:01.069Z,1285.50
2022-08-05T08:24:15.544Z,1312.00
2022-08-05T08:25:16.513Z,1181.80
2022-08-05T08:26:14.543Z,1301.50
2022-08-05T08:27:16.657Z,1273.00
2022-08-05T08:28:18.915Z,1321.40
2022-08-05T08:29:29.470Z,1344.80
2022-08-05T08:30:29.782Z,1325.70
2022-08-05T08:31:17.378Z,1352.00
2022-08-05T08:32:14.443Z,1326.00
2022-08-05T08:33:14.559Z,1360.30
2022-08-05T08:34:14.465Z,1352.30
2022-08-05T08:35:14.398Z,1377.00
2022-08-05T08:36:50.486Z,1399.00
2022-08-05T08:37:18.714Z,1381.10
2022-08-05T08:38:16.467Z,1429.80
2022-08-05T08:39:15.862Z,1411.50
2022-08-05T08:40:14.327Z,1422.80
2022-08-05T08:41:14.333Z,1439.80
2022-08-05T08:42:32.341Z,1404.70
2022-08-05T08:45:17.182Z,1480.00
2022-08-05T08:45:18.935Z,1493.40
2022-08-05T08:45:23.212Z,1483.60
2022-08-05T08:46:15.605Z,1504.80
2022-08-05T08:47:46.794Z,1447.10
2022-08-05T08:48:42.906Z,1469.90
2022-08-05T08:50:22.565Z,1487.80
2022-08-05T08:50:30.637Z,1498.10
2022-08-05T08:52:01.914Z,1497.40
2022-08-05T08:52:15.222Z,1462.10
2022-08-05T08:53:14.176Z,1377.10
2022-08-05T08:54:14.149Z,1365.50
2022-08-05T08:55:14.153Z,1423.30
2022-08-05T08:56:15.118Z,1432.90
2022-08-05T08:57:14.376Z,1424.60
2022-08-05T08:58:14.098Z,1415.10
2022-08-05T08:59:19.279Z,1434.40
2022-08-05T09:00:15.782Z,1435.70
2022-08-05T09:01:15.828Z,1391.50
2022-08-05T09:02:14.041Z,1413.80
2022-08-05T09:03:16.171Z,1429.10
2022-08-05T09:04:15.028Z,1405.70
2022-08-05T09:05:17.617Z,1424.10
2022-08-05T09:06:18.520Z,1421.80
2022-08-05T09:07:19.411Z,1403.60
2022-08-05T09:08:14.971Z,1404.20
2022-08-05T09:09:13.960Z,1415.60
2022-08-05T09:10:13.939Z,1390.60
2022-08-05T09:11:14.125Z,1371.00
2022-08-05T09:12:20.401Z,1406.60
2022-08-05T09:13:14.909Z,1425.60
2022-08-05T09:14:58.531Z,1408.20
2022-08-05T09:15:15.131Z,1415.00
2022-08-05T09:16:14.665Z,1401.40
2022-08-05T09:17:41.200Z,1407.60
2022-08-05T09:18:15.126Z,1400.10
2022-08-05T09:19:14.615Z,1401.60
2022-08-05T09:20:36.758Z,1388.40
2022-08-05T09:22:13.503Z,1398.20
2022-08-05T09:22:22.813Z,1392.60
2022-08-05T09:23:18.512Z,1373.30
2022-08-05T09:24:15.435Z,1387.90
2022-08-05T09:25:24.430Z,1421.20
2022-08-05T09:26:15.885Z,1409.10
2022-08-05T09:27:18.842Z,1429.40
2022-08-05T09:28:14.736Z,1431.60
2022-08-05T09:29:19.089Z,1359.80
2022-08-05T09:30:16.572Z,1323.90
2022-08-05T09:31:22.174Z,1308.30
2022-08-05T09:32:40.331Z,1275.20
2022-08-05T09:33:17.060Z,1299.00
2022-08-05T09:34:13.658Z,1458.80
2022-08-05T09:35:26.371Z,1186.20
2022-08-05T09:36:16.383Z,1229.80
2022-08-05T09:37:15.233Z,1228.90
2022-08-05T09:38:18.020Z,1150.50
2022-08-05T09:39:18.020Z,1129.30
2022-08-05T09:40:13.686Z,1145.80
2022-08-05T09:41:16.241Z,1119.20
2022-08-05T09:42:20.223Z,1069.00
2022-08-05T09:43:14.517Z,1070.60
2022-08-05T09:44:13.495Z,1107.30
2022-08-05T09:46:05.026Z,1110.10
2022-08-05T09:46:15.571Z,1121.80
2022-08-05T09:47:14.214Z,1103.50
2022-08-05T09:48:13.446Z,1069.20
2022-08-05T09:49:18.927Z,1076.60
2022-08-05T09:50:17.892Z,1062.90
2022-08-05T09:51:15.224Z,1073.80
2022-08-05T09:52:13.398Z,1084.80
2022-08-05T09:53:22.949Z,1063.80
2022-08-05T09:54:14.368Z,1102.30
2022-08-05T09:55:56.197Z,1099.20
2022-08-05T09:56:14.339Z,1100.50
2022-08-05T09:57:20.676Z,1097.50
2022-08-05T09:58:14.319Z,1120.90
2022-08-05T09:59:16.935Z,1107.30
2022-08-05T10:00:13.291Z,1102.80
2022-08-05T10:01:15.608Z,1116.50
2022-08-05T10:02:14.341Z,1116.90
2022-08-05T10:03:14.248Z,1107.30
2022-08-05T10:04:13.264Z,1092.50
2022-08-05T10:05:13.229Z,1111.70
2022-08-05T10:06:14.788Z,1107.60
2022-08-05T10:07:21.073Z,1119.30
2022-08-05T10:08:35.913Z,1096.10
2022-08-05T10:09:27.228Z,1107.60
2022-08-05T10:10:15.735Z,1106.00
2022-08-05T10:11:13.159Z,1099.70
2022-08-05T10:12:18.731Z,1094.60
2022-08-05T10:13:14.573Z,1097.40
2022-08-05T10:14:13.129Z,1106.30
2022-08-05T10:15:13.100Z,1149.80
2022-08-05T10:16:13.082Z,1299.00
2022-08-05T10:17:14.092Z,1295.20
2022-08-05T10:18:14.061Z,1303.50
2022-08-05T10:19:13.052Z,1248.90
2022-08-05T10:20:13.042Z,1317.40
2022-08-05T10:21:15.747Z,1314.20
2022-08-05T10:22:15.613Z,1324.80
2022-08-05T10:23:21.866Z,1347.50
2022-08-05T10:24:14.087Z,1339.30
2022-08-05T10:25:14.452Z,1282.90
2022-08-05T10:26:13.921Z,1252.20
2022-08-05T10:27:12.964Z,1262.90
2022-08-05T10:28:19.229Z,1277.30
2022-08-05T10:29:13.922Z,1273.10
2022-08-05T10:32:03.035Z,1274.40
2022-08-05T10:32:49.269Z,1276.00
2022-08-05T10:32:55.421Z,1300.00
2022-08-05T10:33:14.900Z,1324.20
2022-08-05T10:34:12.921Z,1334.70
2022-08-05T10:35:12.840Z,1272.30
2022-08-05T10:36:12.834Z,1291.20
2022-08-05T10:37:12.819Z,1266.40
2022-08-05T10:38:12.805Z,1298.30
2022-08-05T10:39:15.143Z,1318.50
2022-08-05T10:40:17.826Z,1270.90
2022-08-05T10:41:13.849Z,1276.50
2022-08-05T10:42:12.745Z,1306.00
2022-08-05T10:43:12.737Z,1257.40
2022-08-05T10:44:12.724Z,1220.40
2022-08-05T10:45:24.013Z,1231.20
2022-08-05T10:46:13.704Z,1243.10
2022-08-05T10:47:26.047Z,1239.70
2022-08-05T10:48:29.731Z,1266.20
2022-08-05T10:49:16.611Z,1228.40
2022-08-05T10:50:31.722Z,1224.90
2022-08-05T10:51:21.845Z,1378.90
2022-08-05T10:52:13.624Z,1378.40
2022-08-05T10:53:12.606Z,1263.50
2022-08-05T10:54:28.570Z,1248.80
2022-08-05T10:55:16.075Z,1241.60
2022-08-05T10:56:21.373Z,1225.30
2022-08-05T10:57:13.546Z,1261.30
2022-08-05T10:58:14.854Z,1221.50
2022-08-05T11:00:01.299Z,1265.10
2022-08-05T11:00:19.140Z,1275.00
2022-08-05T11:01:13.513Z,1245.90
2022-08-05T11:02:14.432Z,1379.90
2022-08-05T11:03:24.452Z,1410.50
2022-08-05T11:04:13.458Z,1389.00
2022-08-05T11:05:12.452Z,1328.10
2022-08-05T11:06:15.049Z,1301.40
2022-08-05T11:07:12.438Z,1393.20
2022-08-05T11:08:36.706Z,1394.30
2022-08-05T11:09:16.776Z,1456.30
2022-08-05T11:10:12.451Z,1298.90
2022-08-05T11:11:16.571Z,1203.90
2022-08-05T11:12:12.367Z,1224.80
2022-08-05T11:13:12.349Z,1220.20
2022-08-05T11:14:12.340Z,1234.60
2022-08-05T11:15:19.966Z,1266.60
2022-08-05T11:16:13.340Z,1256.00
2022-08-05T11:17:57.582Z,1210.80
2022-08-05T11:18:13.313Z,1154.50
2022-08-05T11:20:10.526Z,1155.20
2022-08-05T11:20:18.366Z,1175.20
2022-08-05T11:21:13.241Z,1185.40
2022-08-05T11:22:12.242Z,1195.30
2022-08-05T11:23:12.209Z,1199.20
2022-08-05T11:24:29.660Z,1183.90
2022-08-05T11:25:26.707Z,1211.90
2022-08-05T11:26:13.191Z,1212.10
2022-08-05T11:27:12.171Z,1196.80
2022-08-05T11:28:12.244Z,1204.10
2022-08-05T11:29:14.348Z,1209.10
2022-08-05T11:30:12.132Z,1284.60
2022-08-05T11:31:12.112Z,1240.90
2022-08-05T11:32:13.106Z,1249.10
2022-08-05T11:33:13.784Z,1256.30
2022-08-05T11:34:14.639Z,1284.40
2022-08-05T11:35:12.063Z,1283.20
2022-08-05T11:36:12.054Z,1374.40
2022-08-05T11:38:29.638Z,1493.60
2022-08-05T11:38:30.793Z,1480.90
2022-08-05T11:39:13.622Z,1490.00
2022-08-05T11:40:12.003Z,1381.80
2022-08-05T11:41:57.988Z,1366.20
2022-08-05T11:42:12.973Z,1378.70
2022-08-05T11:43:12.954Z,1365.60
2022-08-05T11:44:11.944Z,1414.50
2022-08-05T11:45:14.590Z,1340.90
2022-08-05T11:46:23.416Z,1310.90
2022-08-05T11:47:15.299Z,1305.40
2022-08-05T11:48:12.894Z,1325.20
2022-08-05T11:49:11.978Z,1242.00
2022-08-05T11:50:14.374Z,1262.10
2022-08-05T11:51:11.854Z,1339.10
2022-08-05T11:52:12.856Z,1366.00
2022-08-05T11:53:11.814Z,1341.20
2022-08-05T11:54:11.823Z,1339.80
2022-08-05T11:55:12.663Z,1313.80
2022-08-05T11:56:11.794Z,1331.50
2022-08-05T11:57:25.041Z,1285.60
2022-08-05T11:58:13.109Z,1246.00
2022-08-05T11:59:13.905Z,1300.50
2022-08-05T12:00:11.885Z,1387.20
2022-08-05T12:01:11.713Z,1393.00
2022-08-05T12:02:24.020Z,1346.90
2022-08-05T12:03:12.755Z,1247.60
2022-08-05T12:04:11.684Z,1249.60
2022-08-05T12:05:18.024Z,1446.90
2022-08-05T12:06:12.658Z,1297.10
2022-08-05T12:07:11.637Z,1252.50